Logan Cache Airport Logan US
ICAO: KLGU
IATA: LGU
Category: Medium
Scheduled Services: No

Elevation: 4457 ft
TransAlt. 18000 ft.

Airport Communications:
ASOS:135.275
CEDAR CITY RDO:122.2
CTAF/UNICOM:122.8

KLGU Zoom In..

Runways:

(A) RW 10 length 5005 ft width 75 ft
---- / hdg 108

(B) RW 17 length 9010 ft width 100 ft
ILS 109.15 / hdg 169

(C) RW 28 length 5005 ft width 75 ft
---- / hdg 288

(D) RW 35 length 9010 ft width 100 ft
---- / hdg 349

Location; KLGU
Day. 30 / Time. 21.51 Zulu
* Altimeter: 29.88
* Temperature: 35° c. 95°f.
* Wind from: 200° Speed 07 kn with Gusts up to 16 kn.
Dewpoint: 04° c.
Visibility: 10 Statute Miles.
Clouds: Clear (automated report).

KLGU 302151Z AUTO 20007G16KT 10SM CLR 35/04 A2988 RMK AO2 SLP048 T03500039


Wind From 200°
Speed 07 kn.

 
 
jpsmedia worldairports.se 2020   terms of use